LiveATC.Net - Listen to live air traffic control over the Internet!


ICAO: SBFZ  IATA: FOR   Airport: Pinto Martins International Airport
City: Fortaleza
Country: Brazil   Continent: South America
SBFZ METAR Weather: SBFZ 211100Z 12006KT 9999 BKN020 SCT080 25/24 Q1012
SBFZ Flight Activity (FlightAware)
SBFZ Gnd/Twr/App/Center
Feed Status: DOWN
Last heard on: 2017-02-07 23:07:04 (13 days 12 hours 52 minutes ago)
SBFZ Gnd/Twr/App/Center Audio Archives
FacilityFrequency
ACC-RE (Fortaleza Sector)125.150
ACC-RE (Fortaleza Sector)126.350
ACC-RE (Fortaleza Sector)135.250
Fortaleza Approach133.000
Fortaleza Approach (backup)134.550
Fortaleza Ground121.950
Fortaleza Operations122.500
Fortaleza Tower129.000


NOTICE

Unauthorized use prohibited. See LiveATC.net Terms of Service


Find LiveATC Audio Streams


Airport/ARTCC Code

Frequency Search
(e.g., 124.400, 128.75)
Site-wide search
 


Browse LiveATC Feeds
LiveATC Coverage Map
Top 50 LiveATC Feeds
Bad Weather Areas

LiveATC FAQ
Offer a LiveATC Feed
Contact LiveATC.net
Press Inquiries

LiveATC on iPhone
LiveATC on Android

Windows Phone
Windows 8/10

LiveATC Mobile
(Mobile browser)

ATC Audio Archives
Interesting Recordings

LiveATC Forums


Home Page
About LiveATC.net
Make a Donation
LiveATC Store

Terms of Use
Privacy Policy

Canadian Air Freqs

AIRMETs/SIGMETs

FAA Airport Status
Nat'l Airspace Status
Arrival Demand Charts


Server Software By:
Icecast.org
Liquidsoap